Terminal Aerodrome Forecast
Issued by NWS

Home | Current Version | Previous Version | Text Only | Print | Product List | Glossary On
Versions: 1 2 3 4 5 6 7 8 9 10 11 12 13 14 15 16 17 18 19 20 21 22 23 24 25 26 27 28 29 30 31 32
000
FTUS45 KBOU 231741
TAFAPA
TAF
KAPA 231741Z 2318/2418 24020G32KT P6SM FEW090 FEW120 SCT220
     FM232300 25014G25KT P6SM FEW120 BKN150
     FM240200 32012KT P6SM FEW090 SCT120 BKN150
     FM240300 01020G30KT P6SM VCSH SCT035 OVC080
     FM240500 35025G35KT 4SM -SHRA SCT015 OVC030
     FM240800 36028G42KT 2SM -SHSNRA SCT008 OVC015
     FM241100 35030G45KT 3/4SM -SN BLSN BKN008 OVC012
      TEMPO 2411/2415 1/4SM +SN BLSN VV003=

USA.gov is the U.S. government's official web portal to all federal, state and local government web resources and services.